Time,TemperatureF,DewpointF,PressureIn,WindDirection,WindDirectionDegrees,WindSpeedMPH,WindSpeedGustMPH,Humidity,HourlyPrecipIn,Conditions,Clouds,dailyrainin,SoftwareType,DateUTC
2013-05-13 06:32:00,37.2,31.9,29.90,WSW,246,8.8,31.3,81,0.05,,BKN,0.00,VWS V14.00,2013-05-13 10:32:00,
2013-05-13 06:33:00,37.2,31.9,29.90,WSW,246,8.8,31.3,81,0.05,,BKN,0.00,VWS V14.00,2013-05-13 10:33:00,
2013-05-13 06:38:00,37.2,31.9,29.90,WSW,246,8.8,31.3,81,0.05,,BKN,0.00,VWS V14.00,2013-05-13 10:38:00,
2013-05-13 07:03:00,38.6,31.9,29.91,WSW,243,8.1,31.3,77,0.05,,BKN,0.00,VWS V14.00,2013-05-13 11:03:00,
2013-05-13 07:06:00,38.7,31.8,29.91,SSE,152,4.3,31.3,76,0.04,,BKN,0.00,VWS V14.00,2013-05-13 11:06:00,
2013-05-13 07:08:00,38.7,31.8,29.91,SSE,152,4.3,31.3,76,0.04,,BKN,0.00,VWS V14.00,2013-05-13 11:08:00,
2013-05-13 07:13:00,38.7,31.8,29.91,SSE,152,4.3,31.3,76,0.04,,BKN,0.00,VWS V14.00,2013-05-13 11:13:00,
2013-05-13 07:21:00,39.1,31.7,29.91,SW,229,10.8,31.3,75,0.04,,BKN,0.00,VWS V14.00,2013-05-13 11:21:00,
2013-05-13 07:23:00,39.1,31.7,29.91,SW,229,10.8,31.3,75,0.04,,BKN,0.00,VWS V14.00,2013-05-13 11:23:00,
2013-05-13 07:28:00,39.1,31.7,29.91,SW,229,10.8,31.3,75,0.04,,BKN,0.00,VWS V14.00,2013-05-13 11:28:00,
2013-05-13 07:43:00,39.7,32.4,29.92,West,262,10.3,31.3,75,0.04,,BKN,0.00,VWS V14.00,2013-05-13 11:43:00,
2013-05-13 07:48:00,39.7,32.4,29.92,West,262,10.3,31.3,75,0.04,,BKN,0.00,VWS V14.00,2013-05-13 11:48:00,
2013-05-13 07:53:00,39.9,30.8,29.92,SW,221,6.7,31.3,70,0.03,,BKN,0.00,VWS V14.00,2013-05-13 11:53:00,
2013-05-13 07:55:00,39.9,30.8,29.92,SW,221,6.7,31.3,70,0.03,,BKN,0.00,VWS V14.00,2013-05-13 11:55:00,
2013-05-13 07:58:00,39.9,30.8,29.92,SW,221,6.7,31.3,70,0.03,,BKN,0.00,VWS V14.00,2013-05-13 11:58:00,
2013-05-13 08:03:00,39.9,30.8,29.92,SW,221,6.7,31.3,70,0.03,,BKN,0.00,VWS V14.00,2013-05-13 12:03:00,
2013-05-13 08:33:00,41.1,32.0,29.93,SSW,212,9.0,31.3,70,0.03,,BKN,0.00,VWS V14.00,2013-05-13 12:33:00,
2013-05-13 08:34:00,41.1,32.0,29.93,SSW,212,9.0,31.3,70,0.03,,SCT,0.00,VWS V14.00,2013-05-13 12:34:00,
2013-05-13 08:38:00,41.1,32.0,29.93,SSW,212,9.0,31.3,70,0.03,,SCT,0.00,VWS V14.00,2013-05-13 12:38:00,
2013-05-13 08:43:00,41.1,32.0,29.93,SSW,212,9.0,31.3,70,0.03,,SCT,0.00,VWS V14.00,2013-05-13 12:43:00,
2013-05-13 09:32:00,41.0,31.1,29.94,WSW,240,7.0,31.3,68,0.03,,SCT,0.00,VWS V14.00,2013-05-13 13:32:00,
2013-05-13 09:34:00,41.0,31.1,29.94,WSW,240,7.0,31.3,68,0.03,,SCT,0.00,VWS V14.00,2013-05-13 13:34:00,
2013-05-13 09:39:00,41.0,31.1,29.94,WSW,240,7.0,31.3,68,0.03,,SCT,0.00,VWS V14.00,2013-05-13 13:39:00,
2013-05-13 10:15:00,41.2,30.8,29.96,WSW,250,6.2,14.8,66,0.00,,SCT,0.00,VWS V14.00,2013-05-13 14:15:00,
2013-05-13 10:20:00,41.5,30.4,29.96,SW,231,11.0,19.5,64,0.00,,SCT,0.00,VWS V14.00,2013-05-13 14:20:00,
2013-05-13 10:25:00,41.8,31.2,29.96,SSW,198,11.7,19.5,66,0.00,,SCT,0.00,VWS V14.00,2013-05-13 14:25:00,
2013-05-13 10:30:00,41.8,31.2,29.96,SW,228,5.1,11.5,66,0.00,,SCT,0.00,VWS V14.00,2013-05-13 14:30:00,
2013-05-13 10:35:00,41.8,31.6,29.97,SSW,211,5.9,16.7,67,0.00,,SCT,0.00,VWS V14.00,2013-05-13 14:35:00,
2013-05-13 10:40:00,41.7,30.7,29.97,West,278,8.9,18.3,65,0.00,,SCT,0.00,VWS V14.00,2013-05-13 14:40:00,
2013-05-13 10:45:00,41.7,30.9,29.97,SW,222,7.0,18.3,65,0.00,,SCT,0.00,VWS V14.00,2013-05-13 14:45:00,
2013-05-13 10:50:00,41.4,31.6,29.97,SW,233,6.9,18.3,68,0.00,,SCT,0.00,VWS V14.00,2013-05-13 14:50:00,
2013-05-13 10:55:00,41.3,31.6,29.98,SW,236,11.1,19.8,68,0.00,,SCT,0.00,VWS V14.00,2013-05-13 14:55:00,
2013-05-13 11:00:00,41.6,31.9,29.98,WSW,245,8.6,11.5,68,0.00,,SCT,0.00,VWS V14.00,2013-05-13 15:00:00,
2013-05-13 11:05:00,41.5,31.7,29.98,West,281,9.6,14.4,68,0.00,,SCT,0.00,VWS V14.00,2013-05-13 15:05:00,
2013-05-13 11:10:00,41.8,31.7,29.98,SW,215,7.7,14.4,67,0.00,,SCT,0.00,VWS V14.00,2013-05-13 15:10:00,
2013-05-13 11:15:00,42.0,31.7,29.98,SW,221,8.6,14.4,67,0.00,,SCT,0.00,VWS V14.00,2013-05-13 15:15:00,
2013-05-13 11:20:00,41.7,30.9,29.99,WSW,256,8.8,22.6,65,0.00,,SCT,0.00,VWS V14.00,2013-05-13 15:20:00,
2013-05-13 11:25:00,41.8,31.4,29.99,SW,222,6.8,22.6,66,0.00,,SCT,0.00,VWS V14.00,2013-05-13 15:25:00,
2013-05-13 11:30:00,42.1,30.7,29.99,SW,228,8.5,14.7,64,0.00,,SCT,0.00,VWS V14.00,2013-05-13 15:30:00,
2013-05-13 11:35:00,42.4,31.4,29.99,WSW,245,12.5,14.7,65,0.00,,SCT,0.00,VWS V14.00,2013-05-13 15:35:00,
2013-05-13 11:40:00,42.3,30.2,29.99,SW,219,7.5,20.0,62,0.00,,SCT,0.00,VWS V14.00,2013-05-13 15:40:00,
2013-05-13 11:45:00,42.1,30.1,29.99,SW,221,10.5,22.8,62,0.00,,SCT,0.00,VWS V14.00,2013-05-13 15:45:00,
2013-05-13 11:50:00,42.4,30.4,30.00,SW,235,9.9,22.8,62,0.00,,SCT,0.00,VWS V14.00,2013-05-13 15:50:00,
2013-05-13 11:55:00,43.0,30.7,30.00,SW,214,9.5,22.8,62,0.00,,SCT,0.00,VWS V14.00,2013-05-13 15:55:00,
2013-05-13 12:00:00,43.2,30.8,30.00,SW,221,10.3,15.4,61,0.00,,SCT,0.00,VWS V14.00,2013-05-13 16:00:00,
2013-05-13 12:05:00,43.5,30.8,30.00,SW,231,6.5,16.1,60,0.00,,SCT,0.00,VWS V14.00,2013-05-13 16:05:00,
2013-05-13 12:10:00,43.9,30.7,29.99,SW,235,13.9,18.8,59,0.00,,SCT,0.00,VWS V14.00,2013-05-13 16:10:00,
2013-05-13 12:16:00,43.8,31.1,30.00,SW,222,12.2,18.8,61,0.00,,SCT,0.00,VWS V14.00,2013-05-13 16:16:00,
2013-05-13 12:21:00,44.0,31.1,30.00,West,278,3.7,18.8,60,0.00,,SCT,0.00,VWS V14.00,2013-05-13 16:21:00,
2013-05-13 12:26:00,43.8,30.7,30.00,SSW,211,10.6,18.8,60,0.00,,SCT,0.00,VWS V14.00,2013-05-13 16:26:00,
2013-05-13 12:30:00,41.9,31.2,29.99,WNW,298,8.2,22.6,65,0.00,,SCT,0.00,VWS V14.00,2013-05-13 16:30:00,
2013-05-13 12:31:00,44.0,30.3,30.00,WSW,242,7.6,15.8,58,0.00,,SCT,0.00,VWS V14.00,2013-05-13 16:31:00,
2013-05-13 12:36:00,44.4,31.2,30.00,SW,231,8.7,15.8,60,0.00,,SCT,0.00,VWS V14.00,2013-05-13 16:36:00,
2013-05-13 12:41:00,44.3,30.5,30.00,SW,217,11.2,15.8,58,0.00,,SCT,0.00,VWS V14.00,2013-05-13 16:41:00,
2013-05-13 12:46:00,44.8,31.2,30.00,WSW,239,7.4,16.6,59,0.00,,SCT,0.00,VWS V14.00,2013-05-13 16:46:00,
2013-05-13 12:51:00,45.4,32.7,30.00,South,181,11.4,16.6,61,0.00,,SCT,0.00,VWS V14.00,2013-05-13 16:51:00,
2013-05-13 12:56:00,45.2,29.9,30.00,WSW,246,7.7,18.3,55,0.00,,SCT,0.00,VWS V14.00,2013-05-13 16:56:00,
2013-05-13 13:00:00,43.0,30.9,29.99,SW,225,9.2,22.8,62,0.00,,SCT,0.00,VWS V14.00,2013-05-13 17:00:00,
2013-05-13 13:01:00,44.8,30.0,30.00,SW,218,8.5,19.0,56,0.00,,SCT,0.00,VWS V14.00,2013-05-13 17:01:00,
2013-05-13 13:06:00,45.1,31.8,30.00,South,188,7.7,19.0,59,0.00,,SCT,0.00,VWS V14.00,2013-05-13 17:06:00,
2013-05-13 13:11:00,45.2,33.1,30.01,WSW,256,6.5,19.0,62,0.00,,SCT,0.00,VWS V14.00,2013-05-13 17:11:00,
2013-05-13 13:16:00,45.7,33.0,30.01,SSW,198,8.5,19.0,61,0.00,,SCT,0.00,VWS V14.00,2013-05-13 17:16:00,
2013-05-13 13:21:00,46.8,34.3,30.00,SSW,212,7.0,19.0,62,0.00,,SCT,0.00,VWS V14.00,2013-05-13 17:21:00,
2013-05-13 13:26:00,46.9,32.5,30.00,WSW,240,9.0,19.3,57,0.00,,SCT,0.00,VWS V14.00,2013-05-13 17:26:00,
2013-05-13 13:30:00,44.1,31.6,30.00,WSW,253,11.7,18.8,61,0.00,,SCT,0.00,VWS V14.00,2013-05-13 17:30:00,
2013-05-13 13:31:00,45.8,31.5,30.01,SW,225,7.3,16.8,57,0.00,,SCT,0.00,VWS V14.00,2013-05-13 17:31:00,
2013-05-13 13:36:00,46.0,32.3,30.01,SW,232,5.6,16.8,58,0.00,,SCT,0.00,VWS V14.00,2013-05-13 17:36:00,
2013-05-13 13:41:00,46.9,31.6,30.00,WSW,242,8.3,16.8,55,0.00,,SCT,0.00,VWS V14.00,2013-05-13 17:41:00,
2013-05-13 13:46:00,47.3,30.9,30.00,SW,221,12.2,17.1,53,0.00,,SCT,0.00,VWS V14.00,2013-05-13 17:46:00,
2013-05-13 13:51:00,45.5,31.8,30.01,SW,236,12.8,20.8,58,0.00,,SCT,0.00,VWS V14.00,2013-05-13 17:51:00,
2013-05-13 13:56:00,45.0,34.5,30.01,SW,218,9.1,20.8,66,0.00,,SCT,0.00,VWS V14.00,2013-05-13 17:56:00,
2013-05-13 14:00:00,45.0,29.2,30.00,West,270,11.3,19.4,54,0.00,,SCT,0.00,VWS V14.00,2013-05-13 18:00:00,
2013-05-13 14:01:00,45.4,34.0,30.01,SSW,197,6.9,15.4,64,0.00,,SCT,0.00,VWS V14.00,2013-05-13 18:01:00,
2013-05-13 14:06:00,45.0,34.2,30.02,WSW,253,8.6,23.1,66,0.00,,SCT,0.00,VWS V14.00,2013-05-13 18:06:00,
2013-05-13 14:11:00,45.4,34.8,30.01,SW,232,9.4,23.1,66,0.00,,SCT,0.00,VWS V14.00,2013-05-13 18:11:00,
2013-05-13 14:16:00,46.1,34.5,30.02,WSW,238,9.8,23.1,64,0.00,,SCT,0.00,VWS V14.00,2013-05-13 18:16:00,
2013-05-13 14:21:00,46.2,33.8,30.02,WSW,249,7.7,23.1,62,0.00,,SCT,0.00,VWS V14.00,2013-05-13 18:21:00,
2013-05-13 14:26:00,44.4,34.9,30.02,WSW,252,9.5,23.1,69,0.00,,SCT,0.00,VWS V14.00,2013-05-13 18:26:00,
2013-05-13 14:30:00,46.3,31.3,30.00,WSW,250,6.2,19.3,56,0.00,,SCT,0.00,VWS V14.00,2013-05-13 18:30:00,
2013-05-13 14:31:00,45.1,35.6,30.02,WNW,290,5.2,11.7,69,0.00,,SCT,0.00,VWS V14.00,2013-05-13 18:31:00,
2013-05-13 14:36:00,45.7,36.0,30.02,SW,231,5.1,12.0,69,0.00,,SCT,0.00,VWS V14.00,2013-05-13 18:36:00,
2013-05-13 14:41:00,46.0,37.3,30.02,West,266,8.8,18.7,72,0.00,,SCT,0.00,VWS V14.00,2013-05-13 18:41:00,
2013-05-13 14:46:00,45.2,36.2,30.03,West,262,7.0,21.9,70,0.00,,SCT,0.00,VWS V14.00,2013-05-13 18:46:00,
2013-05-13 14:51:00,44.9,35.6,30.03,West,270,9.1,21.9,70,0.00,,SCT,0.00,VWS V14.00,2013-05-13 18:51:00,
2013-05-13 14:56:00,45.0,37.5,30.02,SW,225,4.5,21.9,75,0.00,,SCT,0.00,VWS V14.00,2013-05-13 18:56:00,
2013-05-13 15:00:00,45.2,33.5,30.01,SW,217,10.8,20.8,63,0.00,,SCT,0.00,VWS V14.00,2013-05-13 19:00:00,
2013-05-13 15:01:00,45.3,36.3,30.02,SSW,205,7.6,14.6,70,0.00,,SCT,0.00,VWS V14.00,2013-05-13 19:01:00,
2013-05-13 15:06:00,46.1,38.3,30.02,WSW,238,10.1,14.6,74,0.00,,SCT,0.00,VWS V14.00,2013-05-13 19:06:00,
2013-05-13 15:11:00,45.3,36.9,30.02,WSW,242,5.2,15.4,72,0.00,,SCT,0.00,VWS V14.00,2013-05-13 19:11:00,
2013-05-13 15:16:00,45.7,37.7,30.02,WSW,256,4.3,15.4,74,0.00,,SCT,0.00,VWS V14.00,2013-05-13 19:16:00,
2013-05-13 15:21:00,46.7,37.3,30.02,WSW,238,6.5,15.4,70,0.00,,SCT,0.00,VWS V14.00,2013-05-13 19:21:00,
2013-05-13 15:26:00,46.6,35.5,30.02,West,259,9.6,16.7,65,0.00,,SCT,0.00,VWS V14.00,2013-05-13 19:26:00,
2013-05-13 15:30:00,44.9,36.2,30.02,WSW,243,6.9,23.1,71,0.00,,SCT,0.00,VWS V14.00,2013-05-13 19:30:00,
2013-05-13 15:31:00,47.1,36.4,30.01,SW,232,9.4,15.8,66,0.00,,SCT,0.00,VWS V14.00,2013-05-13 19:31:00,
2013-05-13 15:36:00,47.4,36.2,30.02,West,263,4.7,15.8,65,0.00,,SCT,0.00,VWS V14.00,2013-05-13 19:36:00,
2013-05-13 15:41:00,47.5,35.4,30.02,WSW,250,8.3,19.2,63,0.00,,SCT,0.00,VWS V14.00,2013-05-13 19:41:00,
2013-05-13 15:46:00,47.3,34.8,30.02,SW,214,12.8,19.2,62,0.00,,SCT,0.00,VWS V14.00,2013-05-13 19:46:00,
2013-05-13 15:51:00,47.6,34.1,30.02,SW,224,9.4,21.3,59,0.00,,SCT,0.00,VWS V14.00,2013-05-13 19:51:00,
2013-05-13 15:56:00,47.2,34.2,30.02,WSW,245,7.1,21.3,60,0.00,,SCT,0.00,VWS V14.00,2013-05-13 19:56:00,
2013-05-13 16:00:00,44.8,36.4,30.02,SW,224,8.5,21.9,72,0.00,,SCT,0.00,VWS V14.00,2013-05-13 20:00:00,
2013-05-13 16:01:00,47.4,35.0,30.02,WSW,239,7.6,14.2,62,0.00,,SCT,0.00,VWS V14.00,2013-05-13 20:01:00,
2013-05-13 16:06:00,47.6,35.1,30.02,SW,221,10.7,14.2,62,0.00,,SCT,0.00,VWS V14.00,2013-05-13 20:06:00,
2013-05-13 16:11:00,47.7,34.5,30.02,NW,305,7.3,17.4,60,0.00,,SCT,0.00,VWS V14.00,2013-05-13 20:11:00,
2013-05-13 16:16:00,47.5,33.1,30.02,WSW,239,5.9,18.9,57,0.00,,SCT,0.00,VWS V14.00,2013-05-13 20:16:00,
2013-05-13 16:21:00,47.6,34.4,30.02,SW,225,13.4,18.9,60,0.00,,SCT,0.00,VWS V14.00,2013-05-13 20:21:00,
2013-05-13 16:26:00,47.7,34.9,30.02,NW,307,6.5,18.9,61,0.00,,SCT,0.00,VWS V14.00,2013-05-13 20:26:00,
2013-05-13 16:30:00,46.9,36.3,30.01,WSW,238,7.5,16.7,66,0.00,,SCT,0.00,VWS V14.00,2013-05-13 20:30:00,
2013-05-13 16:31:00,47.8,34.2,30.02,NW,308,7.0,16.6,59,0.00,,SCT,0.00,VWS V14.00,2013-05-13 20:31:00,
2013-05-13 16:36:00,48.4,36.2,30.02,WSW,256,4.2,17.5,63,0.00,,SCT,0.00,VWS V14.00,2013-05-13 20:36:00,
2013-05-13 16:41:00,48.4,33.2,30.02,WSW,240,5.3,17.5,56,0.00,,SCT,0.00,VWS V14.00,2013-05-13 20:41:00,
2013-05-13 16:46:00,48.0,33.8,30.02,WNW,291,6.8,17.5,58,0.00,,SCT,0.00,VWS V14.00,2013-05-13 20:46:00,
2013-05-13 16:51:00,47.5,33.9,30.02,SSW,207,14.3,21.3,59,0.00,,SCT,0.00,VWS V14.00,2013-05-13 20:51:00,
2013-05-13 16:56:00,47.5,34.3,30.02,SW,219,2.5,21.3,60,0.00,,SCT,0.00,VWS V14.00,2013-05-13 20:56:00,
2013-05-13 17:00:00,47.4,35.2,30.02,WSW,253,6.8,21.3,62,0.00,,SCT,0.00,VWS V14.00,2013-05-13 21:00:00,
2013-05-13 17:01:00,48.0,33.6,30.02,SW,221,12.1,17.1,57,0.00,,SCT,0.00,VWS V14.00,2013-05-13 21:01:00,
2013-05-13 17:06:00,48.4,34.5,30.02,WSW,256,11.1,17.1,58,0.00,,SCT,0.00,VWS V14.00,2013-05-13 21:06:00,
2013-05-13 17:11:00,48.1,34.3,30.02,WSW,242,9.1,18.1,59,0.00,,SCT,0.00,VWS V14.00,2013-05-13 21:11:00,
2013-05-13 17:16:00,48.0,32.8,30.02,NW,311,4.8,18.1,56,0.00,,SCT,0.00,VWS V14.00,2013-05-13 21:16:00,
2013-05-13 17:21:00,48.0,33.2,30.02,WSW,240,3.1,18.1,56,0.00,,SCT,0.00,VWS V14.00,2013-05-13 21:21:00,
2013-05-13 17:26:00,48.1,33.7,30.03,South,191,9.4,18.1,57,0.00,,SCT,0.00,VWS V14.00,2013-05-13 21:26:00,
2013-05-13 17:30:00,47.7,34.3,30.02,WSW,238,7.6,18.9,60,0.00,,SCT,0.00,VWS V14.00,2013-05-13 21:30:00,
2013-05-13 17:31:00,47.9,33.2,30.03,SW,219,12.8,16.0,56,0.00,,SCT,0.00,VWS V14.00,2013-05-13 21:31:00,
2013-05-13 17:36:00,48.0,33.1,30.02,WSW,238,7.6,16.3,56,0.00,,SCT,0.00,VWS V14.00,2013-05-13 21:36:00,
2013-05-13 17:41:00,48.3,34.2,30.03,SW,229,8.6,17.9,58,0.00,,SCT,0.00,VWS V14.00,2013-05-13 21:41:00,
2013-05-13 17:46:00,48.1,32.9,30.03,WSW,248,13.0,23.3,56,0.00,,SCT,0.00,VWS V14.00,2013-05-13 21:46:00,
2013-05-13 17:51:00,47.8,32.1,30.03,SSW,207,5.5,23.3,54,0.00,,SCT,0.00,VWS V14.00,2013-05-13 21:51:00,
2013-05-13 17:56:00,47.8,32.8,30.03,West,259,8.7,23.3,56,0.00,,SCT,0.00,VWS V14.00,2013-05-13 21:56:00,
2013-05-13 18:00:00,47.4,33.3,30.02,WSW,253,8.4,21.3,58,0.00,,SCT,0.00,VWS V14.00,2013-05-13 22:00:00,
2013-05-13 18:01:00,47.8,32.8,30.03,West,264,5.2,10.4,56,0.00,,SCT,0.00,VWS V14.00,2013-05-13 22:01:00,
2013-05-13 18:06:00,47.9,33.9,30.03,SW,236,4.5,10.8,58,0.00,,SCT,0.00,VWS V14.00,2013-05-13 22:06:00,
2013-05-13 18:11:00,47.9,34.7,30.03,WSW,256,4.3,10.8,60,0.00,,SCT,0.00,VWS V14.00,2013-05-13 22:11:00,
2013-05-13 18:16:00,47.5,34.5,30.04,WSW,246,5.7,11.6,60,0.00,,SCT,0.00,VWS V14.00,2013-05-13 22:16:00,
2013-05-13 18:21:00,47.3,35.5,30.03,WSW,250,4.7,11.6,63,0.00,,SCT,0.00,VWS V14.00,2013-05-13 22:21:00,
2013-05-13 18:26:00,47.3,34.5,30.04,WSW,252,7.5,11.6,61,0.00,,SCT,0.00,VWS V14.00,2013-05-13 22:26:00,
2013-05-13 18:30:00,48.1,33.8,30.02,West,263,4.7,18.1,57,0.00,,SCT,0.00,VWS V14.00,2013-05-13 22:30:00,
2013-05-13 18:31:00,47.5,33.6,30.04,West,260,7.1,12.2,58,0.00,,SCT,0.00,VWS V14.00,2013-05-13 22:31:00,
2013-05-13 18:36:00,47.8,33.8,30.04,West,280,7.1,12.2,58,0.00,,SCT,0.00,VWS V14.00,2013-05-13 22:36:00,
2013-05-13 18:42:00,48.0,33.5,30.04,West,259,6.3,12.2,57,0.00,,SCT,0.00,VWS V14.00,2013-05-13 22:42:00,
2013-05-13 18:47:00,48.2,34.8,30.04,West,280,3.2,12.2,60,0.00,,SCT,0.00,VWS V14.00,2013-05-13 22:47:00,
2013-05-13 18:52:00,48.1,33.0,30.04,WSW,249,6.5,13.9,56,0.00,,SCT,0.00,VWS V14.00,2013-05-13 22:52:00,
2013-05-13 18:57:00,48.4,34.2,30.04,SW,224,10.1,13.9,58,0.00,,SCT,0.00,VWS V14.00,2013-05-13 22:57:00,
2013-05-13 19:00:00,47.8,32.7,30.03,SW,235,4.5,23.3,56,0.00,,SCT,0.00,VWS V14.00,2013-05-13 23:00:00,
2013-05-13 19:02:00,48.3,33.9,30.04,WSW,240,7.6,13.2,57,0.00,,SCT,0.00,VWS V14.00,2013-05-13 23:02:00,
2013-05-13 19:07:00,48.1,34.1,30.04,SW,236,6.0,14.4,58,0.00,,SCT,0.00,VWS V14.00,2013-05-13 23:07:00,
2013-05-13 19:12:00,48.2,34.4,30.05,WSW,256,7.0,14.4,59,0.00,,SCT,0.00,VWS V14.00,2013-05-13 23:12:00,
2013-05-13 19:17:00,48.2,34.2,30.05,SW,229,4.5,14.4,58,0.00,,SCT,0.00,VWS V14.00,2013-05-13 23:17:00,
2013-05-13 19:22:00,48.0,34.3,30.05,WSW,243,8.0,14.4,59,0.01,,SCT,0.01,VWS V14.00,2013-05-13 23:22:00,
2013-05-13 19:27:00,48.0,34.5,30.05,West,263,4.2,14.4,59,0.01,,SCT,0.01,VWS V14.00,2013-05-13 23:27:00,
2013-05-13 19:30:00,47.4,34.3,30.04,WSW,245,5.7,11.6,60,0.00,,SCT,0.00,VWS V14.00,2013-05-13 23:30:00,
2013-05-13 19:32:00,48.2,35.2,30.05,SSW,198,4.7,8.2,60,0.01,,SCT,0.01,VWS V14.00,2013-05-13 23:32:00,
2013-05-13 19:37:00,48.0,34.1,30.05,SW,219,7.9,13.0,58,0.01,,SCT,0.01,VWS V14.00,2013-05-13 23:37:00,
2013-05-13 19:42:00,47.9,34.4,30.05,WSW,238,3.6,13.0,59,0.01,,SCT,0.01,VWS V14.00,2013-05-13 23:42:00,
2013-05-13 19:47:00,47.7,34.0,30.05,WSW,249,4.1,13.0,59,0.01,,SCT,0.01,VWS V14.00,2013-05-13 23:47:00,
2013-05-13 19:52:00,47.5,34.2,30.05,WSW,238,5.5,13.0,60,0.01,,SCT,0.01,VWS V14.00,2013-05-13 23:52:00,
2013-05-13 19:57:00,47.3,34.3,30.05,West,259,8.8,13.0,60,0.01,,SCT,0.01,VWS V14.00,2013-05-13 23:57:00,
2013-05-13 20:00:00,48.4,33.4,30.04,SW,236,5.8,16.0,56,0.00,,SCT,0.00,VWS V14.00,2013-05-14 00:00:00,
2013-05-13 20:02:00,47.0,34.3,30.05,SW,217,4.7,7.0,61,0.00,,SCT,0.01,VWS V14.00,2013-05-14 00:02:00,
2013-05-13 20:07:00,46.9,34.3,30.05,West,260,4.3,7.7,61,0.00,,SCT,0.01,VWS V14.00,2013-05-14 00:07:00,
2013-05-13 20:12:00,46.4,33.8,30.05,WSW,252,8.1,9.8,61,0.00,,SCT,0.01,VWS V14.00,2013-05-14 00:12:00,
2013-05-13 20:17:00,46.2,33.8,30.05,West,267,6.0,9.8,62,0.00,,SCT,0.01,VWS V14.00,2013-05-14 00:17:00,
2013-05-13 20:22:00,46.1,33.9,30.06,SW,233,4.4,9.8,62,0.00,,SCT,0.01,VWS V14.00,2013-05-14 00:22:00,
2013-05-13 20:27:00,45.9,33.9,30.06,WSW,239,2.9,9.8,63,0.00,,SCT,0.01,VWS V14.00,2013-05-14 00:27:00,
2013-05-13 20:30:00,48.0,34.6,30.05,West,267,4.2,14.4,60,0.01,,SCT,0.01,VWS V14.00,2013-05-14 00:30:00,
2013-05-13 20:32:00,45.7,34.0,30.06,SW,214,1.6,5.5,63,0.00,,SCT,0.01,VWS V14.00,2013-05-14 00:32:00,
2013-05-13 20:37:00,45.3,33.9,30.06,SW,235,2.1,8.3,64,0.00,,SCT,0.01,VWS V14.00,2013-05-14 00:37:00,
2013-05-13 20:42:00,45.0,33.8,30.06,SW,235,3.7,8.3,65,0.00,,SCT,0.01,VWS V14.00,2013-05-14 00:42:00,
2013-05-13 20:47:00,45.0,34.0,30.06,SW,233,3.8,9.3,65,0.00,,SCT,0.01,VWS V14.00,2013-05-14 00:47:00,
2013-05-13 20:52:00,44.9,34.0,30.07,SW,224,1.6,9.3,65,0.00,,SCT,0.01,VWS V14.00,2013-05-14 00:52:00,
2013-05-13 20:57:00,44.6,34.0,30.07,West,267,2.4,9.3,66,0.00,,SCT,0.01,VWS V14.00,2013-05-14 00:57:00,
2013-05-13 21:00:00,47.1,33.9,30.05,West,280,6.7,13.0,60,0.00,,SCT,0.01,VWS V14.00,2013-05-14 01:00:00,
2013-05-13 21:02:00,44.4,34.1,30.07,SW,232,5.7,7.8,67,0.00,,SCT,0.01,VWS V14.00,2013-05-14 01:02:00,
2013-05-13 21:07:00,44.3,34.1,30.07,WSW,248,2.0,7.8,67,0.00,,SCT,0.01,VWS V14.00,2013-05-14 01:07:00,
2013-05-13 21:12:00,44.2,34.1,30.07,SW,229,3.4,7.8,68,0.00,,SCT,0.01,VWS V14.00,2013-05-14 01:12:00,
2013-05-13 21:17:00,44.3,34.2,30.07,SW,233,1.4,7.8,68,0.00,,SCT,0.01,VWS V14.00,2013-05-14 01:17:00,
2013-05-13 21:22:00,44.2,34.2,30.08,WSW,250,2.2,7.8,68,0.00,,SCT,0.01,VWS V14.00,2013-05-14 01:22:00,
2013-05-13 21:27:00,44.1,34.3,30.08,SSW,194,0.0,7.8,68,0.00,,SCT,0.01,VWS V14.00,2013-05-14 01:27:00,
2013-05-13 21:30:00,45.9,33.9,30.06,SW,236,3.4,9.8,63,0.00,,SCT,0.01,VWS V14.00,2013-05-14 01:30:00,
2013-05-13 21:32:00,43.9,34.2,30.08,WSW,239,3.0,4.8,68,0.00,,SCT,0.01,VWS V14.00,2013-05-14 01:32:00,
2013-05-13 21:37:00,43.7,34.2,30.08,SW,219,3.0,4.8,69,0.00,,SCT,0.01,VWS V14.00,2013-05-14 01:37:00,
2013-05-13 21:42:00,43.6,34.3,30.08,SW,219,1.5,4.8,70,0.00,,SCT,0.01,VWS V14.00,2013-05-14 01:42:00,
2013-05-13 21:47:00,43.6,34.3,30.09,WSW,243,2.6,5.3,70,0.00,,SCT,0.01,VWS V14.00,2013-05-14 01:47:00,
2013-05-13 21:52:00,43.6,34.4,30.09,SW,235,1.6,5.3,70,0.00,,SCT,0.01,VWS V14.00,2013-05-14 01:52:00,
2013-05-13 21:57:00,43.5,34.4,30.09,West,259,1.5,5.3,70,0.00,,SCT,0.01,VWS V14.00,2013-05-14 01:57:00,
2013-05-13 22:00:00,44.5,33.9,30.07,SW,222,3.1,9.3,66,0.00,,SCT,0.01,VWS V14.00,2013-05-14 02:00:00,
2013-05-13 22:02:00,43.7,34.6,30.09,SW,219,1.5,3.3,70,0.00,,SCT,0.01,VWS V14.00,2013-05-14 02:02:00,
2013-05-13 22:07:00,43.6,34.6,30.10,SSW,207,0.0,3.3,70,0.00,,SCT,0.01,VWS V14.00,2013-05-14 02:07:00,
2013-05-13 22:12:00,43.5,34.7,30.10,West,271,0.7,3.3,71,0.00,,SCT,0.01,VWS V14.00,2013-05-14 02:12:00,
2013-05-13 22:15:00,43.5,34.7,30.10,West,271,0.0,3.3,71,0.00,,SCT,0.01,VWS V14.00,2013-05-14 02:15:00,
2013-05-13 22:17:00,43.5,34.7,30.10,West,271,0.0,3.3,71,0.00,,SCT,0.01,VWS V14.00,2013-05-14 02:17:00,
2013-05-13 22:22:00,43.5,34.7,30.10,West,271,0.0,3.3,71,0.00,,SCT,0.01,VWS V14.00,2013-05-14 02:22:00,
2013-05-13 22:30:00,44.0,34.2,30.08,SW,235,1.3,7.8,68,0.00,,SCT,0.01,VWS V14.00,2013-05-14 02:30:00,
2013-05-13 22:32:00,42.8,34.5,30.10,South,173,1.3,3.3,72,0.00,,SCT,0.01,VWS V14.00,2013-05-14 02:32:00,
2013-05-13 22:37:00,42.8,34.5,30.10,South,173,1.3,3.3,72,0.00,,SCT,0.01,VWS V14.00,2013-05-14 02:37:00,
2013-05-13 23:00:00,43.8,34.7,30.09,SW,224,1.3,5.3,70,0.00,,SCT,0.01,VWS V14.00,2013-05-14 03:00:00,
2013-05-13 23:02:00,42.3,35.0,30.11,ESE,105,0.0,3.3,75,0.00,,SCT,0.01,VWS V14.00,2013-05-14 03:02:00,
2013-05-13 23:07:00,42.3,35.0,30.11,ESE,105,0.0,3.3,75,0.00,,SCT,0.01,VWS V14.00,2013-05-14 03:07:00,
2013-05-13 23:14:00,42.0,35.0,30.11,SSE,159,2.0,3.3,76,0.00,,SCT,0.01,VWS V14.00,2013-05-14 03:14:00,
2013-05-13 23:17:00,42.0,35.0,30.11,SSE,159,2.0,3.3,76,0.00,,SCT,0.01,VWS V14.00,2013-05-14 03:17:00,
2013-05-13 23:22:00,42.0,35.0,30.11,SSE,159,2.0,3.3,76,0.00,,SCT,0.01,VWS V14.00,2013-05-14 03:22:00,
2013-05-13 23:52:00,41.4,34.8,30.11,WSW,239,1.6,3.3,77,0.00,,SCT,0.01,VWS V14.00,2013-05-14 03:52:00,
2013-05-13 23:53:00,41.4,34.8,30.11,WSW,239,1.6,3.3,77,0.00,,SCT,0.01,VWS V14.00,2013-05-14 03:53:00,
2013-05-13 23:57:00,41.4,34.8,30.11,WSW,239,1.6,3.3,77,0.00,,SCT,0.01,VWS V14.00,2013-05-14 03:57:00,